Hauptseite
METAR-TAF:

METAR-TAF

Flughäfen :

Uden, Niederlande

Militärflugplatz Volkel

Breite: 51-39N, Länge: 005-42E, Höhe: 22 m

Beobachtung

Neuester Wetterbericht von vor 13 Minuten, um 18:44 UTC
Wind 13 kt aus Süd/Südwest
Temperatur 10°C
Luftfeuchtigkeit 87%
Luftdruck 1009 hPa
Sichtweite 10 km oder mehr
Aufgelockert bewölkt in der Höhe von 1300 ft
Geschlossene Wolkendecke in der Höhe von 1600 ft

METAR: EHVK 211844Z AUTO 21013KT 9999 SCT013 OVC016 10/08 Q1009 GRN

Zeit: 19:57 (18:57 UTC)

Prognose

Neuester Wetterbericht von vor 1 Stunde und 41 Minuten, um 17:16 UTC
Gültige Prognose vom 21 um 18 UTC bis 22 um 06 UTC
Wind 15 kt aus Südwest
Sichtweite 10 km oder mehr
Aufgelockert bewölkt in der Höhe von 1200 ft
Durchbrochene Bewölkung in der Höhe von 1500 ft

TAF: EHVK 211716Z 2118/2206 22015KT 9999 SCT012 BKN015

Wetterbeobachtungen und Prognosen von mehr als 4000 Flughäfen (METAR und TAF Bericht).

Die verfügbaren Stationen werden durch gelbe und rote Markierungen auf der Karte dargestellt.

Führen Sie die Maus auf sie, um den Namen der Station zu sehen.

Darauf klicken, um die Beobachtung von Wetterbeobachtungen und Prognosen zu sehen.

Um die Karte zu ändern : klicken Sie auf den grünen Tasten mit einem schwarzen Kreuz Zum Vergrößern, auf den grünen Button mit einem Gedankenstrich zu verkleinern, oder auf die grünen Pfeile für benachbarte Karten.


METAR-TAF: